createdAt,value
2018-07-30T00:00:52.976Z,5.50
2018-07-30T00:03:22.278Z,6.20
2018-07-30T00:05:51.552Z,6.30
2018-07-30T00:08:20.614Z,6.40
2018-07-30T00:10:50.275Z,5.33
2018-07-30T00:13:19.673Z,5.83
2018-07-30T00:15:49.668Z,5.70
2018-07-30T00:18:18.941Z,6.03
2018-07-30T00:20:48.505Z,5.50
2018-07-30T00:23:17.783Z,5.80
2018-07-30T00:25:47.079Z,5.50
2018-07-30T00:28:16.699Z,5.43
2018-07-30T00:30:46.024Z,5.80
2018-07-30T00:33:15.324Z,5.90
2018-07-30T00:35:44.602Z,6.27
2018-07-30T00:38:13.814Z,6.20
2018-07-30T00:40:43.087Z,6.10
2018-07-30T00:43:12.337Z,7.10
2018-07-30T00:45:41.937Z,5.77
2018-07-30T00:48:11.700Z,5.70
2018-07-30T00:50:41.182Z,7.33
2018-07-30T00:53:10.698Z,6.40
2018-07-30T00:55:40.241Z,6.00
2018-07-30T00:58:09.540Z,6.10
2018-07-30T01:00:39.307Z,5.90
2018-07-30T01:03:08.565Z,5.70
2018-07-30T01:05:37.872Z,6.50
2018-07-30T01:08:07.787Z,5.87
2018-07-30T01:10:37.351Z,6.80
2018-07-30T01:13:06.699Z,6.37
2018-07-30T01:15:36.328Z,5.93
2018-07-30T01:18:05.658Z,6.23
2018-07-30T01:20:35.325Z,6.53
2018-07-30T01:23:04.784Z,6.27
2018-07-30T01:25:34.108Z,6.57
2018-07-30T01:28:03.383Z,6.07
2018-07-30T01:30:32.614Z,6.50
2018-07-30T01:33:02.175Z,6.00
2018-07-30T01:35:31.613Z,5.83
2018-07-30T01:38:00.863Z,5.57
2018-07-30T01:40:30.258Z,6.80
2018-07-30T01:42:59.807Z,7.10
2018-07-30T01:45:29.104Z,6.47
2018-07-30T01:47:58.364Z,6.13
2018-07-30T01:50:27.684Z,5.50
2018-07-30T01:52:56.942Z,6.00
2018-07-30T01:55:26.677Z,6.40
2018-07-30T01:57:55.894Z,5.83
2018-07-30T02:00:25.463Z,6.77
2018-07-30T02:02:54.760Z,5.83
2018-07-30T02:05:24.334Z,5.53
2018-07-30T02:07:53.980Z,6.30
2018-07-30T02:10:23.330Z,6.33
2018-07-30T02:12:52.698Z,6.60
2018-07-30T02:15:22.401Z,5.90
2018-07-30T02:17:51.949Z,6.20
2018-07-30T02:20:21.271Z,7.10
2018-07-30T02:22:50.870Z,6.50
2018-07-30T02:25:21.005Z,7.00
2018-07-30T02:27:50.555Z,5.90
2018-07-30T02:30:19.837Z,6.93
2018-07-30T02:32:49.143Z,5.93
2018-07-30T02:35:18.481Z,7.00
2018-07-30T02:37:47.731Z,7.20
2018-07-30T02:40:17.475Z,6.80
2018-07-30T02:42:46.744Z,7.43
2018-07-30T02:45:16.018Z,8.07
2018-07-30T02:47:46.365Z,7.57
2018-07-30T02:50:15.598Z,7.00
2018-07-30T02:52:45.208Z,7.70
2018-07-30T02:55:14.834Z,7.10
2018-07-30T02:57:44.282Z,8.00
2018-07-30T03:00:13.484Z,6.50
2018-07-30T03:02:43.113Z,7.80
2018-07-30T03:05:12.926Z,6.67
2018-07-30T03:07:42.509Z,7.53
2018-07-30T03:10:12.077Z,6.83
2018-07-30T03:12:41.826Z,7.80
2018-07-30T03:15:11.062Z,6.77
2018-07-30T03:17:40.356Z,8.43
2018-07-30T03:20:09.656Z,7.30
2018-07-30T03:22:39.252Z,7.20
2018-07-30T03:25:08.999Z,8.00
2018-07-30T03:27:38.274Z,7.90
2018-07-30T03:30:09.830Z,8.40
2018-07-30T03:32:39.452Z,8.70
2018-07-30T03:35:09.729Z,8.17
2018-07-30T03:37:39.483Z,7.60
2018-07-30T03:40:08.869Z,8.47
2018-07-30T03:42:38.443Z,7.37
2018-07-30T03:45:09.164Z,8.57
2018-07-30T03:47:38.427Z,6.97
2018-07-30T03:50:08.028Z,8.27
2018-07-30T03:52:37.315Z,7.80
2018-07-30T03:55:07.804Z,8.10
2018-07-30T03:57:37.801Z,8.47
2018-07-30T04:00:09.831Z,8.30
2018-07-30T04:02:39.174Z,8.20
2018-07-30T04:05:08.763Z,7.77
2018-07-30T04:07:38.980Z,7.50
2018-07-30T04:10:09.911Z,7.90
2018-07-30T04:12:40.002Z,7.50
2018-07-30T04:15:10.025Z,8.17
2018-07-30T04:17:39.309Z,7.80
2018-07-30T04:20:08.968Z,7.90
2018-07-30T04:22:38.247Z,8.17
2018-07-30T04:25:08.085Z,8.47
2018-07-30T04:27:37.424Z,8.43
2018-07-30T04:30:06.715Z,8.63
2018-07-30T04:32:36.388Z,8.57
2018-07-30T04:35:05.726Z,8.40
2018-07-30T04:37:35.250Z,8.10
2018-07-30T04:40:04.636Z,8.70
2018-07-30T04:42:33.941Z,8.03
2018-07-30T04:45:03.237Z,8.13
2018-07-30T04:47:32.480Z,7.93
2018-07-30T04:50:02.100Z,8.90
2018-07-30T04:52:31.343Z,7.87
2018-07-30T04:55:00.996Z,9.20
2018-07-30T04:57:30.554Z,7.00
2018-07-30T04:59:59.819Z,7.30
2018-07-30T05:02:29.075Z,6.93
2018-07-30T05:04:58.666Z,8.50
2018-07-30T05:07:28.414Z,6.40
2018-07-30T05:09:57.703Z,6.93
2018-07-30T05:12:27.578Z,6.50
2018-07-30T05:14:57.452Z,6.53
2018-07-30T05:17:26.803Z,7.57
2018-07-30T05:19:56.742Z,6.43
2018-07-30T05:22:26.367Z,6.97
2018-07-30T05:24:55.601Z,6.70
2018-07-30T05:27:24.850Z,6.50
2018-07-30T05:29:54.136Z,6.83
2018-07-30T05:32:23.763Z,6.23
2018-07-30T05:34:54.013Z,6.40
2018-07-30T05:37:23.336Z,5.77
2018-07-30T05:39:52.799Z,6.00
2018-07-30T05:42:22.120Z,6.50
2018-07-30T05:44:51.357Z,6.23
2018-07-30T05:47:20.611Z,7.30
2018-07-30T05:49:49.880Z,6.37
2018-07-30T05:52:19.115Z,6.50
2018-07-30T05:54:48.333Z,7.17
2018-07-30T05:57:17.629Z,6.53
2018-07-30T05:59:47.361Z,6.60
2018-07-30T06:02:16.786Z,6.57
2018-07-30T06:04:46.116Z,6.27
2018-07-30T06:07:15.397Z,6.50
2018-07-30T06:09:45.353Z,6.47
2018-07-30T06:12:14.690Z,4.47
2018-07-30T06:14:44.308Z,3.93
2018-07-30T06:17:13.974Z,3.37
2018-07-30T06:19:43.977Z,3.47
2018-07-30T06:22:13.275Z,2.53
2018-07-30T06:24:42.579Z,2.40
2018-07-30T06:27:11.817Z,2.10
2018-07-30T06:29:41.132Z,2.50
2018-07-30T06:32:10.744Z,2.37
2018-07-30T06:34:39.955Z,2.90
2018-07-30T06:37:09.564Z,2.37
2018-07-30T06:39:38.562Z,2.53
2018-07-30T06:42:07.848Z,2.67
2018-07-30T06:44:37.112Z,3.70
2018-07-30T06:47:06.836Z,3.60
2018-07-30T06:49:36.043Z,5.00
2018-07-30T06:52:05.615Z,4.50
2018-07-30T06:54:35.242Z,6.10
2018-07-30T06:57:04.952Z,5.17
2018-07-30T06:59:34.184Z,6.00
2018-07-30T07:02:03.928Z,5.80
2018-07-30T07:04:33.392Z,6.10
2018-07-30T07:07:02.683Z,5.93
2018-07-30T07:09:32.216Z,6.70
2018-07-30T07:12:01.506Z,5.10
2018-07-30T07:14:31.082Z,5.70
2018-07-30T07:17:00.767Z,6.07
2018-07-30T07:19:30.427Z,6.70
2018-07-30T07:22:06.402Z,5.90
2018-07-30T07:24:35.700Z,5.83
2018-07-30T07:27:04.993Z,6.20
2018-07-30T07:29:36.580Z,6.13
2018-07-30T07:32:05.919Z,6.43
2018-07-30T07:34:35.288Z,5.30
2018-07-30T07:37:04.558Z,5.10
2018-07-30T07:39:33.802Z,6.80
2018-07-30T07:42:03.158Z,6.10
2018-07-30T07:44:32.460Z,5.20
2018-07-30T07:47:02.068Z,4.43
2018-07-30T07:49:31.327Z,5.63
2018-07-30T07:52:00.627Z,5.80
2018-07-30T07:54:30.161Z,5.40
2018-07-30T07:56:59.673Z,5.30
2018-07-30T07:59:28.951Z,5.33
2018-07-30T08:01:58.231Z,6.10
2018-07-30T08:04:27.551Z,5.57
2018-07-30T08:06:56.826Z,5.10
2018-07-30T08:09:26.175Z,5.30
2018-07-30T08:11:55.410Z,5.33
2018-07-30T08:14:25.161Z,4.80
2018-07-30T08:16:54.416Z,5.60
2018-07-30T08:19:23.716Z,5.80
2018-07-30T08:21:53.239Z,5.20
2018-07-30T08:24:22.477Z,4.90
2018-07-30T08:26:52.590Z,5.43
2018-07-30T08:29:22.195Z,5.20
2018-07-30T08:31:51.506Z,5.70
2018-07-30T08:34:20.788Z,5.20
2018-07-30T08:36:50.070Z,5.17
2018-07-30T08:39:19.690Z,5.77
2018-07-30T08:41:49.241Z,4.73
2018-07-30T08:44:18.579Z,5.73
2018-07-30T08:46:48.136Z,4.60
2018-07-30T08:49:17.743Z,5.80
2018-07-30T08:51:46.996Z,4.40
2018-07-30T08:54:17.631Z,4.67
2018-07-30T08:56:46.889Z,4.23
2018-07-30T08:59:16.141Z,5.10
2018-07-30T09:01:45.566Z,4.73
2018-07-30T09:04:14.963Z,5.00
2018-07-30T09:06:44.198Z,4.00
2018-07-30T09:09:13.539Z,3.87
2018-07-30T09:11:42.832Z,3.20
2018-07-30T09:14:12.364Z,2.53
2018-07-30T09:16:41.437Z,1.73
2018-07-30T09:19:16.008Z,1.63
2018-07-30T09:21:45.358Z,1.00
2018-07-30T09:24:14.650Z,1.00
2018-07-30T09:26:43.955Z,0.80
2018-07-30T09:29:13.231Z,0.90
2018-07-30T09:31:42.929Z,0.93
2018-07-30T09:34:12.142Z,1.10
2018-07-30T09:36:41.424Z,1.00
2018-07-30T09:39:11.983Z,0.80
2018-07-30T09:41:41.787Z,0.90
2018-07-30T09:44:11.056Z,0.70
2018-07-30T09:46:40.335Z,0.50
2018-07-30T09:49:09.961Z,1.30
2018-07-30T09:51:39.442Z,1.10
2018-07-30T09:54:09.031Z,1.10
2018-07-30T09:56:38.277Z,0.87
2018-07-30T09:59:07.810Z,0.80
2018-07-30T10:01:37.522Z,0.97
2018-07-30T10:04:06.844Z,1.20
2018-07-30T10:06:36.117Z,0.90
2018-07-30T10:09:09.816Z,1.07
2018-07-30T10:11:39.466Z,1.00
2018-07-30T10:14:09.601Z,0.80
2018-07-30T10:16:38.944Z,1.07
2018-07-30T10:19:08.189Z,1.10
2018-07-30T10:21:37.462Z,1.47
2018-07-30T10:24:07.138Z,1.10
2018-07-30T10:26:36.359Z,1.23
2018-07-30T10:29:05.611Z,1.40
2018-07-30T10:31:35.166Z,1.90
2018-07-30T10:34:05.638Z,2.47
2018-07-30T10:36:35.569Z,2.83
2018-07-30T10:39:07.104Z,2.87
2018-07-30T10:41:36.368Z,2.67
2018-07-30T10:44:06.072Z,3.10
2018-07-30T10:46:35.324Z,2.90
2018-07-30T10:49:04.682Z,3.90
2018-07-30T10:51:33.954Z,3.00
2018-07-30T10:54:03.245Z,3.20
2018-07-30T10:56:32.529Z,3.60
2018-07-30T10:59:01.816Z,3.40
2018-07-30T11:01:31.935Z,3.27
2018-07-30T11:04:01.245Z,3.73
2018-07-30T11:06:30.877Z,4.03
2018-07-30T11:09:00.189Z,4.40
2018-07-30T11:11:29.847Z,3.67
2018-07-30T11:13:59.498Z,3.60
2018-07-30T11:16:28.882Z,3.90
2018-07-30T11:18:58.137Z,3.00
2018-07-30T11:21:27.746Z,3.30
2018-07-30T11:23:57.019Z,2.80
2018-07-30T11:26:26.312Z,2.70
2018-07-30T11:28:55.569Z,2.07
2018-07-30T11:31:25.803Z,2.17
2018-07-30T11:33:55.187Z,1.60
2018-07-30T11:36:24.775Z,2.00
2018-07-30T11:38:54.779Z,1.63
2018-07-30T11:41:24.406Z,1.70
2018-07-30T11:43:54.334Z,2.13
2018-07-30T11:46:23.514Z,2.20
2018-07-30T11:48:52.923Z,3.00
2018-07-30T11:51:22.461Z,3.53
2018-07-30T11:53:51.723Z,3.33
2018-07-30T11:56:21.005Z,3.60
2018-07-30T11:58:50.308Z,3.33
2018-07-30T12:01:19.981Z,4.23
2018-07-30T12:03:49.263Z,3.47
2018-07-30T12:06:19.083Z,3.50
2018-07-30T12:08:48.719Z,3.40
2018-07-30T12:11:17.983Z,4.47
2018-07-30T12:13:47.273Z,3.43
2018-07-30T12:16:16.989Z,3.70
2018-07-30T12:18:46.722Z,3.60
2018-07-30T12:21:16.758Z,2.90
2018-07-30T12:23:46.003Z,3.40
2018-07-30T12:26:15.607Z,3.00
2018-07-30T12:28:44.899Z,2.90
2018-07-30T12:31:14.667Z,2.87
2018-07-30T12:33:44.147Z,3.40
2018-07-30T12:36:13.904Z,2.70
2018-07-30T12:38:43.224Z,2.90
2018-07-30T12:41:12.828Z,2.93
2018-07-30T12:43:42.130Z,2.70
2018-07-30T12:46:11.719Z,2.50
2018-07-30T12:48:41.496Z,2.70
2018-07-30T12:51:11.178Z,2.23
2018-07-30T12:53:41.208Z,2.70
2018-07-30T12:56:10.472Z,2.30
2018-07-30T12:58:39.713Z,2.60
2018-07-30T13:01:09.034Z,2.70
2018-07-30T13:03:38.299Z,2.87
2018-07-30T13:06:07.677Z,2.80
2018-07-30T13:08:37.016Z,2.57
2018-07-30T13:11:06.674Z,2.30
2018-07-30T13:13:36.584Z,2.97
2018-07-30T13:16:05.880Z,2.67
2018-07-30T13:18:35.528Z,2.70
2018-07-30T13:21:04.858Z,2.37
2018-07-30T13:23:34.404Z,2.63
2018-07-30T13:26:03.991Z,2.93
2018-07-30T13:28:33.228Z,2.80
2018-07-30T13:31:02.857Z,2.50
2018-07-30T13:33:32.260Z,3.07
2018-07-30T13:36:01.984Z,2.13
2018-07-30T13:38:31.348Z,2.43
2018-07-30T13:41:00.991Z,2.20
2018-07-30T13:43:30.563Z,2.03
2018-07-30T13:46:00.636Z,1.97
2018-07-30T13:48:30.428Z,2.50
2018-07-30T13:50:59.731Z,2.77
2018-07-30T13:53:29.000Z,2.30
2018-07-30T13:55:58.288Z,2.17
2018-07-30T13:58:27.552Z,2.33
2018-07-30T14:00:56.787Z,2.10
2018-07-30T14:03:26.052Z,2.07
2018-07-30T14:05:55.336Z,2.37
2018-07-30T14:08:24.835Z,2.30
2018-07-30T14:10:54.380Z,2.30
2018-07-30T14:13:26.806Z,2.37
2018-07-30T14:15:56.852Z,2.50
2018-07-30T14:18:26.220Z,2.37
2018-07-30T14:20:55.872Z,2.30
2018-07-30T14:23:25.462Z,2.70
2018-07-30T14:25:54.734Z,2.70
2018-07-30T14:28:24.420Z,2.40
2018-07-30T14:30:53.639Z,3.10
2018-07-30T14:33:23.329Z,2.53
2018-07-30T14:35:53.030Z,2.70
2018-07-30T14:38:22.596Z,2.80
2018-07-30T14:40:51.867Z,2.60
2018-07-30T14:43:21.145Z,3.13
2018-07-30T14:45:50.436Z,2.00
2018-07-30T14:48:19.992Z,3.20
2018-07-30T14:50:49.224Z,2.80
2018-07-30T14:53:18.499Z,2.20
2018-07-30T14:55:47.800Z,2.70
2018-07-30T14:58:17.050Z,2.40
2018-07-30T15:00:46.321Z,2.43
2018-07-30T15:03:16.003Z,2.00
2018-07-30T15:05:45.250Z,2.70
2018-07-30T15:08:14.477Z,2.20
2018-07-30T15:10:43.719Z,2.63
2018-07-30T15:13:13.021Z,2.37
2018-07-30T15:15:42.790Z,2.10
2018-07-30T15:18:12.465Z,2.57
2018-07-30T15:20:41.738Z,2.43
2018-07-30T15:23:11.552Z,2.83
2018-07-30T15:25:40.847Z,2.57
2018-07-30T15:28:10.067Z,2.60
2018-07-30T15:30:39.343Z,2.17
2018-07-30T15:33:09.071Z,1.80
2018-07-30T15:35:38.392Z,2.00
2018-07-30T15:38:08.274Z,1.83
2018-07-30T15:40:37.551Z,2.60
2018-07-30T15:43:06.828Z,2.10
2018-07-30T15:45:36.102Z,2.00
2018-07-30T15:48:05.343Z,2.60
2018-07-30T15:50:34.655Z,2.37
2018-07-30T15:53:03.916Z,2.30
2018-07-30T15:55:33.549Z,2.57
2018-07-30T15:58:03.143Z,2.30
2018-07-30T16:00:32.428Z,2.63
2018-07-30T16:03:01.737Z,2.53
2018-07-30T16:05:31.067Z,2.20
2018-07-30T16:08:00.136Z,2.20
2018-07-30T16:10:29.408Z,2.33
2018-07-30T16:12:58.699Z,2.27
2018-07-30T16:15:27.975Z,2.13
2018-07-30T16:17:57.366Z,2.83
2018-07-30T16:20:26.540Z,2.50
2018-07-30T16:22:56.291Z,2.17
2018-07-30T16:25:25.595Z,2.70
2018-07-30T16:27:54.846Z,2.23
2018-07-30T16:30:24.449Z,2.90
2018-07-30T16:32:54.292Z,2.70
2018-07-30T16:35:23.804Z,2.43
2018-07-30T16:37:53.088Z,2.40
2018-07-30T16:40:22.622Z,2.30
2018-07-30T16:42:53.396Z,2.40
2018-07-30T16:45:22.683Z,2.60
2018-07-30T16:47:52.759Z,2.70
2018-07-30T16:50:22.014Z,2.20
2018-07-30T16:52:51.342Z,2.60
2018-07-30T16:55:20.962Z,3.00
2018-07-30T16:57:50.249Z,2.70
2018-07-30T17:00:19.816Z,2.57
2018-07-30T17:02:49.233Z,2.30
2018-07-30T17:05:19.018Z,2.50
2018-07-30T17:07:48.991Z,3.40
2018-07-30T17:10:18.251Z,2.10
2018-07-30T17:12:47.928Z,2.67
2018-07-30T17:15:17.570Z,2.53
2018-07-30T17:17:46.876Z,2.63
2018-07-30T17:20:16.114Z,2.70
2018-07-30T17:22:45.437Z,2.43
2018-07-30T17:25:14.711Z,2.57
2018-07-30T17:27:44.049Z,3.10
2018-07-30T17:30:13.753Z,2.60
2018-07-30T17:32:42.980Z,2.67
2018-07-30T17:35:12.206Z,2.30
2018-07-30T17:37:41.446Z,2.50
2018-07-30T17:40:11.151Z,2.30
2018-07-30T17:42:40.741Z,3.03
2018-07-30T17:45:13.071Z,2.97
2018-07-30T17:47:43.160Z,2.43
2018-07-30T17:50:12.419Z,2.83
2018-07-30T17:52:42.096Z,3.27
2018-07-30T17:55:11.358Z,2.90
2018-07-30T17:57:41.714Z,3.90
2018-07-30T18:00:11.923Z,2.90
2018-07-30T18:02:41.543Z,2.90
2018-07-30T18:05:10.860Z,3.10
2018-07-30T18:07:40.556Z,2.50
2018-07-30T18:10:10.597Z,3.00
2018-07-30T18:12:40.262Z,2.50
2018-07-30T18:15:10.400Z,2.60
2018-07-30T18:17:39.732Z,3.20
2018-07-30T18:20:09.419Z,3.03
2018-07-30T18:22:38.730Z,3.80
2018-07-30T18:25:08.414Z,2.87
2018-07-30T18:27:38.187Z,3.90
2018-07-30T18:30:07.778Z,4.40
2018-07-30T18:32:37.355Z,3.53
2018-07-30T18:35:06.628Z,3.43
2018-07-30T18:37:36.279Z,4.60
2018-07-30T18:40:06.538Z,4.33
2018-07-30T18:42:35.787Z,4.70
2018-07-30T18:45:07.162Z,4.17
2018-07-30T18:47:36.425Z,4.23
2018-07-30T18:50:06.152Z,3.93
2018-07-30T18:52:35.924Z,4.53
2018-07-30T18:55:05.752Z,4.60
2018-07-30T18:57:35.584Z,4.70
2018-07-30T19:00:05.469Z,4.57
2018-07-30T19:02:35.100Z,4.23
2018-07-30T19:05:04.650Z,4.50
2018-07-30T19:07:33.903Z,4.40
2018-07-30T19:10:03.763Z,4.57
2018-07-30T19:12:32.978Z,4.30
2018-07-30T19:17:59.984Z,4.60
2018-07-30T19:20:29.977Z,4.90
2018-07-30T19:22:59.506Z,4.83
2018-07-30T19:25:29.112Z,5.53
2018-07-30T19:27:58.731Z,5.07
2018-07-30T19:30:28.396Z,5.87
2018-07-30T19:32:57.688Z,5.73
2018-07-30T19:35:26.967Z,6.10
2018-07-30T19:37:56.187Z,7.80
2018-07-30T19:40:25.406Z,5.90
2018-07-30T19:42:55.068Z,5.57
2018-07-30T19:45:24.856Z,5.30
2018-07-30T19:47:53.903Z,5.00
2018-07-30T19:50:23.138Z,5.20
2018-07-30T19:52:52.692Z,4.80
2018-07-30T19:55:21.950Z,4.73
2018-07-30T19:57:51.532Z,5.23
2018-07-30T20:00:20.501Z,5.17
2018-07-30T20:02:49.818Z,4.87
2018-07-30T20:05:19.083Z,5.20
2018-07-30T20:07:48.339Z,4.93
2018-07-30T20:10:17.586Z,5.40
2018-07-30T20:12:46.810Z,5.17
2018-07-30T20:15:16.467Z,4.97
2018-07-30T20:17:46.149Z,4.50
2018-07-30T20:20:16.946Z,4.80
2018-07-30T20:22:46.382Z,5.50
2018-07-30T20:25:15.631Z,5.17
2018-07-30T20:27:44.877Z,5.37
2018-07-30T20:30:14.098Z,4.97
2018-07-30T20:32:43.450Z,4.83
2018-07-30T20:35:12.723Z,5.50
2018-07-30T20:37:42.532Z,5.37
2018-07-30T20:40:11.882Z,5.00
2018-07-30T20:42:41.611Z,4.03
2018-07-30T20:45:11.002Z,4.90
2018-07-30T20:47:40.264Z,4.53
2018-07-30T20:50:09.481Z,4.63
2018-07-30T20:52:38.735Z,5.30
2018-07-30T20:55:08.366Z,4.97
2018-07-30T20:57:37.626Z,4.63
2018-07-30T21:00:06.927Z,5.07
2018-07-30T21:02:36.370Z,4.77
2018-07-30T21:05:05.827Z,4.60
2018-07-30T21:07:35.034Z,5.00
2018-07-30T21:10:05.072Z,4.17
2018-07-30T21:12:34.627Z,4.60
2018-07-30T21:15:04.343Z,4.57
2018-07-30T21:17:34.435Z,4.47
2018-07-30T21:20:03.919Z,4.53
2018-07-30T21:22:33.718Z,4.80
2018-07-30T21:25:02.989Z,5.40
2018-07-30T21:27:32.570Z,5.13
2018-07-30T21:30:02.304Z,4.87
2018-07-30T21:32:31.527Z,5.13
2018-07-30T21:35:01.215Z,4.90
2018-07-30T21:37:30.707Z,4.03
2018-07-30T21:40:00.295Z,4.53
2018-07-30T21:42:29.563Z,4.40
2018-07-30T21:44:59.706Z,4.77
2018-07-30T21:47:28.956Z,4.40
2018-07-30T21:49:58.559Z,4.37
2018-07-30T21:52:28.107Z,4.47
2018-07-30T21:54:57.419Z,4.53
2018-07-30T21:57:27.273Z,4.67
2018-07-30T21:59:56.528Z,4.60
2018-07-30T22:02:25.994Z,5.10
2018-07-30T22:04:56.075Z,5.30
2018-07-30T22:07:25.614Z,4.80
2018-07-30T22:09:55.200Z,5.00
2018-07-30T22:12:24.699Z,5.40
2018-07-30T22:14:53.947Z,4.93
2018-07-30T22:17:23.983Z,4.97
2018-07-30T22:19:53.201Z,5.03
2018-07-30T22:22:22.421Z,4.97
2018-07-30T22:24:51.688Z,5.10
2018-07-30T22:27:21.019Z,4.70
2018-07-30T22:29:50.664Z,4.40
2018-07-30T22:32:20.868Z,4.80
2018-07-30T22:34:50.233Z,4.30
2018-07-30T22:37:20.258Z,5.20
2018-07-30T22:39:52.409Z,4.50
2018-07-30T22:42:21.792Z,4.93
2018-07-30T22:44:51.061Z,4.77
2018-07-30T22:47:20.507Z,5.07
2018-07-30T22:49:49.770Z,4.90
2018-07-30T22:52:22.561Z,5.93
2018-07-30T22:54:51.819Z,4.83
2018-07-30T22:57:21.663Z,5.53
2018-07-30T22:59:50.938Z,5.23
2018-07-30T23:02:20.220Z,5.10
2018-07-30T23:04:49.499Z,5.10
2018-07-30T23:07:19.227Z,4.10
2018-07-30T23:09:48.497Z,4.80
2018-07-30T23:12:19.206Z,5.07
2018-07-30T23:14:48.858Z,5.77
2018-07-30T23:17:18.071Z,4.93
2018-07-30T23:19:47.730Z,5.73
2018-07-30T23:22:17.572Z,5.30
2018-07-30T23:24:49.770Z,4.93
2018-07-30T23:27:20.048Z,5.10
2018-07-30T23:29:49.339Z,5.20
2018-07-30T23:32:18.568Z,5.93
2018-07-30T23:34:47.837Z,4.63
2018-07-30T23:37:17.214Z,5.00
2018-07-30T23:39:46.742Z,5.17
2018-07-30T23:42:16.679Z,5.30
2018-07-30T23:44:46.671Z,5.00
2018-07-30T23:47:15.967Z,5.00
2018-07-30T23:49:45.190Z,4.90
2018-07-30T23:52:14.402Z,5.10
2018-07-30T23:54:44.033Z,6.00
2018-07-30T23:57:13.418Z,5.70
2018-07-30T23:59:43.041Z,5.50
